Time;durP1;ratioP1;P1;durP2;ratioP2;P2;SDS_P1;SDS_P2;PMS_P1;PMS_P2;Temp;Humidity;BMP_temperature;BMP_pressure;BME280_temperature;BME280_humidity;BME280_pressure;Samples;Min_cycle;Max_cycle;Signal;HPM_P1;HPM_P2
2022/03/24 00:00:37;;;;;;;4.85;3.40;;;;;;;18.62;35.60;101662.28;5027340;28;20570;-42
2022/03/24 00:03:03;;;;;;;3.67;3.10;;;;;;;18.60;35.64;101662.44;5025413;28;20014;-43
2022/03/24 00:05:29;;;;;;;3.40;2.90;;;;;;;18.61;35.60;101660.63;5026737;28;20421;-43
2022/03/24 00:07:55;;;;;;;5.55;3.40;;;;;;;18.60;35.60;101653.69;5026968;28;20021;-41
2022/03/24 00:10:21;;;;;;;3.38;3.08;;;;;;;18.59;35.46;101655.50;5026926;28;20037;-42
2022/03/24 00:12:46;;;;;;;4.55;3.08;;;;;;;18.59;35.51;101650.22;5026516;28;20508;-44
2022/03/24 00:15:12;;;;;;;3.38;2.60;;;;;;;18.57;35.51;101655.66;5027190;28;20120;-45
2022/03/24 00:17:37;;;;;;;3.30;2.78;;;;;;;18.58;35.47;101659.13;5026808;28;20026;-44
2022/03/24 00:20:04;;;;;;;3.72;3.00;;;;;;;18.58;35.32;101656.47;5026675;28;20033;-45
2022/03/24 00:22:30;;;;;;;4.70;3.33;;;;;;;18.58;35.24;101648.56;5026806;28;20081;-44
2022/03/24 00:24:57;;;;;;;3.88;3.35;;;;;;;18.58;35.34;101646.75;5026789;28;20122;-42
2022/03/24 00:27:22;;;;;;;3.75;2.58;;;;;;;18.58;35.35;101635.38;5025217;28;20026;-42
2022/03/24 00:29:48;;;;;;;3.28;2.60;;;;;;;18.58;35.12;101633.56;5026593;28;20033;-41
2022/03/24 00:32:14;;;;;;;3.05;2.75;;;;;;;18.59;34.85;101637.00;5026659;28;20091;-46
2022/03/24 00:34:39;;;;;;;4.82;3.10;;;;;;;18.60;35.25;101643.13;5025362;28;20120;-43
2022/03/24 00:37:05;;;;;;;4.18;3.17;;;;;;;18.60;35.09;101636.06;5026634;28;20144;-44
2022/03/24 00:39:33;;;;;;;3.45;2.78;;;;;;;18.60;35.21;101633.41;5026894;28;20164;-45
2022/03/24 00:42:07;;;;;;;3.53;2.72;;;;;;;18.61;35.04;101626.31;5041757;28;20029;-44
2022/03/24 00:44:32;;;;;;;3.03;2.33;;;;;;;18.61;34.98;101624.50;5025169;28;20084;-44
2022/03/24 00:46:58;;;;;;;3.17;2.72;;;;;;;18.61;34.97;101624.50;5026494;28;20128;-43
2022/03/24 00:49:24;;;;;;;4.05;2.97;;;;;;;18.63;34.95;101627.81;5026865;28;20029;-41
2022/03/24 00:51:49;;;;;;;3.47;3.00;;;;;;;18.62;34.89;101612.97;5025095;28;20437;-41
2022/03/24 00:54:18;;;;;;;15.77;3.17;;;;;;;18.63;34.82;101616.41;5026576;28;20335;-44
2022/03/24 00:56:44;;;;;;;4.10;3.35;;;;;;;18.64;34.75;101612.78;5026444;28;20495;-45
2022/03/24 00:59:10;;;;;;;3.08;2.78;;;;;;;18.64;34.66;101607.50;5026560;28;20158;-44
2022/03/24 01:01:37;;;;;;;3.20;2.63;;;;;;;18.66;34.65;101605.53;5026616;28;20149;-46
2022/03/24 01:04:03;;;;;;;2.97;2.58;;;;;;;18.65;34.53;101609.16;5041735;28;20039;-42
2022/03/24 01:06:29;;;;;;;3.85;2.88;;;;;;;18.63;34.48;101601.41;5041684;28;20030;-45
2022/03/24 01:08:54;;;;;;;4.40;2.75;;;;;;;18.63;34.46;101606.69;5026375;28;20072;-44
2022/03/24 03:12:32;;;;;;;3.85;2.55;;;;;;;18.48;34.72;101572.22;4937135;28;20059;-41
2022/03/24 03:14:58;;;;;;;3.13;2.47;;;;;;;18.51;34.66;101571.06;5028155;28;20144;-45
2022/03/24 03:17:23;;;;;;;2.53;2.17;;;;;;;18.53;34.53;101574.34;5027756;28;20078;-47
2022/03/24 03:19:49;;;;;;;2.65;2.45;;;;;;;18.53;34.66;101574.34;5027867;28;20041;-44
2022/03/24 03:22:15;;;;;;;2.60;2.38;;;;;;;18.54;34.56;101576.00;5027759;28;20037;-47
2022/03/24 03:24:41;;;;;;;3.33;2.50;;;;;;;18.54;34.56;101579.47;5027585;28;20071;-45
2022/03/24 03:27:07;;;;;;;3.97;2.85;;;;;;;18.55;34.44;101572.38;5028134;28;20029;-42
2022/03/24 03:29:33;;;;;;;2.70;2.15;;;;;;;18.54;34.32;101573.34;5027446;28;20025;-44
2022/03/24 03:31:58;;;;;;;3.25;2.95;;;;;;;18.54;34.56;101570.72;5028029;28;20033;-41
2022/03/24 03:34:24;;;;;;;2.72;2.33;;;;;;;18.53;34.45;101574.34;5027710;28;20029;-49
2022/03/24 03:36:51;;;;;;;3.33;2.42;;;;;;;18.54;34.40;101573.34;5027745;28;20034;-46
2022/03/24 03:39:16;;;;;;;3.17;2.47;;;;;;;18.53;34.30;101569.06;5027570;28;20022;-44
2022/03/24 03:41:42;;;;;;;2.95;2.47;;;;;;;18.53;34.25;101574.34;5027463;28;20033;-45
2022/03/24 03:44:08;;;;;;;5.50;2.58;;;;;;;18.51;34.37;101569.25;5025858;28;20022;-49
2022/03/24 03:46:35;;;;;;;3.15;2.30;;;;;;;18.51;34.25;101571.06;5027640;28;20487;-50
2022/03/24 03:49:01;;;;;;;4.30;2.88;;;;;;;18.51;34.21;101571.06;5027830;28;20248;-40
2022/03/24 03:51:27;;;;;;;4.05;3.03;;;;;;;18.50;34.16;101574.69;5025771;28;20554;-46
2022/03/24 03:53:53;;;;;;;2.95;2.20;;;;;;;18.50;34.08;101564.94;5027376;28;20176;-44
2022/03/24 03:56:19;;;;;;;3.85;2.65;;;;;;;18.50;33.99;101570.22;5027050;28;20037;-43
2022/03/24 03:58:44;;;;;;;3.70;2.75;;;;;;;18.51;33.93;101574.53;5027174;28;20084;-42
2022/03/24 04:01:10;;;;;;;4.55;2.63;;;;;;;18.50;33.83;101564.13;5025647;28;20499;-44
2022/03/24 04:03:38;;;;;;;3.58;2.10;;;;;;;18.50;33.90;101564.94;5025877;28;20045;-38
2022/03/24 04:06:07;;;;;;;3.47;2.20;;;;;;;18.50;33.77;101566.78;5026813;28;20048;-44
2022/03/24 04:08:33;;;;;;;4.18;2.55;;;;;;;18.50;33.80;101564.13;5042404;28;20025;-47
2022/03/24 04:11:00;;;;;;;3.03;2.70;;;;;;;18.50;33.64;101558.84;5027161;28;20033;-38
2022/03/24 04:13:26;;;;;;;3.72;2.65;;;;;;;18.50;33.79;101558.84;5040621;28;20045;-39
2022/03/24 04:15:53;;;;;;;2.97;2.22;;;;;;;18.49;33.83;101560.66;5046796;28;20112;-41
2022/03/24 04:18:19;;;;;;;3.17;2.88;;;;;;;18.49;33.79;101552.75;5046949;28;20527;-44
2022/03/24 04:20:45;;;;;;;4.03;2.58;;;;;;;18.48;33.87;101551.09;5046533;28;20103;-45
2022/03/24 04:23:14;;;;;;;4.93;2.55;;;;;;;18.47;33.85;101553.91;5046699;28;20079;-45
2022/03/24 04:25:40;;;;;;;5.38;3.05;;;;;;;18.47;33.74;101553.91;5046769;28;20086;-44
2022/03/24 04:28:07;;;;;;;2.60;2.40;;;;;;;18.47;33.70;101556.56;5046452;28;20041;-45
2022/03/24 04:30:34;;;;;;;3.17;2.60;;;;;;;18.46;33.72;101563.66;5028345;28;20040;-44
2022/03/24 04:32:59;;;;;;;3.88;2.80;;;;;;;18.45;33.75;101561.19;5046604;28;20029;-45
2022/03/24 04:35:26;;;;;;;4.05;2.67;;;;;;;18.45;33.71;101563.81;5046436;28;20029;-46
2022/03/24 04:37:52;;;;;;;2.75;2.55;;;;;;;18.43;33.82;101563.19;5046632;28;20049;-45
2022/03/24 04:40:19;;;;;;;2.92;2.33;;;;;;;18.42;33.66;101570.28;5046390;28;20040;-43
2022/03/24 04:42:47;;;;;;;3.38;3.08;;;;;;;18.42;33.82;101562.38;5046403;28;20045;-42
2022/03/24 04:45:14;;;;;;;3.55;2.92;;;;;;;18.42;33.89;101565.00;5046365;28;20523;-43
2022/03/24 04:47:40;;;;;;;4.63;2.72;;;;;;;18.41;33.89;101567.81;5046861;28;20025;-43
2022/03/24 04:50:07;;;;;;;3.08;2.45;;;;;;;18.42;33.85;101575.56;5046128;28;20779;-51
2022/03/24 04:52:33;;;;;;;3.25;2.45;;;;;;;18.41;33.73;101570.44;5046394;28;20527;-44
2022/03/24 04:55:01;;;;;;;2.92;2.45;;;;;;;18.39;33.78;101559.25;5046178;28;20143;-44
2022/03/24 04:57:28;;;;;;;3.42;2.20;;;;;;;18.38;33.84;101558.41;5046617;28;20036;-42
2022/03/24 04:59:54;;;;;;;4.55;2.30;;;;;;;18.39;33.78;101561.88;5046264;28;20037;-40
2022/03/24 05:02:20;;;;;;;3.53;2.22;;;;;;;18.39;33.83;101561.88;5046348;28;20075;-42
2022/03/24 05:04:46;;;;;;;3.65;2.47;;;;;;;18.38;33.69;101561.06;5046145;28;20025;-47
2022/03/24 05:07:12;;;;;;;3.33;2.78;;;;;;;18.40;33.68;101569.63;5046578;28;20496;-45
2022/03/24 05:09:38;;;;;;;3.75;2.45;;;;;;;18.41;33.63;101575.72;5046316;28;20029;-45
2022/03/24 05:12:05;;;;;;;4.13;2.50;;;;;;;18.41;33.60;101575.72;5049779;28;20036;-42
2022/03/24 05:14:32;;;;;;;3.75;2.28;;;;;;;18.41;33.51;101575.72;5050009;28;20036;-45
2022/03/24 05:17:01;;;;;;;4.10;2.67;;;;;;;18.39;33.66;101578.53;5049824;28;20029;-47
2022/03/24 05:19:27;;;;;;;3.55;2.38;;;;;;;18.39;33.50;101575.91;5049951;28;20102;-39
2022/03/24 05:21:53;;;;;;;4.20;2.22;;;;;;;18.41;33.62;101576.56;5031820;28;20025;-47
2022/03/24 05:24:18;;;;;;;3.30;2.40;;;;;;;18.42;33.61;101585.28;5049716;28;20060;-44
2022/03/24 05:26:44;;;;;;;3.22;2.88;;;;;;;18.42;33.71;101578.19;5049561;28;20053;-42
2022/03/24 05:29:10;;;;;;;3.63;2.78;;;;;;;18.42;33.66;101574.72;5049545;28;20041;-44
2022/03/24 05:31:35;;;;;;;3.42;2.53;;;;;;;18.43;33.48;101584.28;5049559;28;20116;-47
2022/03/24 05:34:01;;;;;;;4.50;3.08;;;;;;;18.45;33.44;101592.84;5049749;28;20193;-42
2022/03/24 05:36:27;;;;;;;2.75;2.42;;;;;;;18.44;33.49;101583.28;5049620;28;20036;-39
2022/03/24 05:38:52;;;;;;;2.45;2.13;;;;;;;18.45;33.47;101588.38;5049647;28;20487;-41
2022/03/24 05:41:18;;;;;;;2.97;2.60;;;;;;;18.45;33.47;101587.56;5049296;28;20298;-43
2022/03/24 05:46:41;;;;;;;2.60;2.30;;;;;;;18.43;33.30;101590.38;5034576;28;20557;-42
2022/03/24 05:49:09;;;;;;;3.35;2.58;;;;;;;18.45;33.32;101590.19;5031156;28;20029;-43
2022/03/24 05:51:35;;;;;;;3.75;2.75;;;;;;;18.47;33.29;101596.13;5049607;28;20037;-43
2022/03/24 05:54:01;;;;;;;2.67;2.30;;;;;;;18.47;33.15;101589.03;5049347;28;20033;-42
2022/03/24 05:56:27;;;;;;;3.28;2.45;;;;;;;18.46;33.20;101594.47;5049330;28;20033;-45
2022/03/24 05:58:55;;;;;;;2.65;2.35;;;;;;;18.45;32.86;101590.19;5049523;28;20116;-40
2022/03/24 06:01:21;;;;;;;3.35;2.67;;;;;;;18.44;33.03;101588.56;5047599;28;20390;-45
2022/03/24 06:03:50;;;;;;;3.53;3.00;;;;;;;18.43;32.88;101585.09;5049367;28;20127;-41
2022/03/24 06:06:16;;;;;;;4.35;2.60;;;;;;;18.42;33.04;101588.75;5049177;28;20123;-43
2022/03/24 06:08:42;;;;;;;4.38;2.47;;;;;;;18.42;33.10;101587.94;5049218;28;20025;-41
2022/03/24 06:11:11;;;;;;;4.65;3.00;;;;;;;18.41;33.22;101588.91;5047497;28;20056;-39
2022/03/24 06:13:36;;;;;;;3.45;2.70;;;;;;;18.41;33.14;101595.03;5028510;28;20543;-43
2022/03/24 06:16:02;;;;;;;2.83;2.17;;;;;;;18.41;33.13;101586.28;5009267;28;20065;-43
2022/03/24 06:18:28;;;;;;;4.00;2.95;;;;;;;18.40;32.96;101590.72;5009253;28;20527;-44
2022/03/24 06:20:54;;;;;;;2.58;2.28;;;;;;;18.42;33.05;101590.56;5008987;28;20512;-42
2022/03/24 06:23:19;;;;;;;3.83;2.90;;;;;;;18.41;32.91;101594.19;5009219;28;20044;-44
2022/03/24 06:25:45;;;;;;;4.70;2.40;;;;;;;18.39;32.88;101594.38;5009279;28;20121;-44
2022/03/24 06:28:11;;;;;;;2.75;2.30;;;;;;;18.41;32.67;101596.84;5009047;28;20128;-39
2022/03/24 06:30:37;;;;;;;3.60;2.50;;;;;;;18.40;32.80;101596.00;5008975;28;20100;-42
2022/03/24 06:33:03;;;;;;;3.10;2.45;;;;;;;18.41;32.72;101596.84;5008964;28;20373;-44
2022/03/24 06:35:29;;;;;;;3.33;2.25;;;;;;;18.42;32.67;101601.13;5009259;28;20424;-42
2022/03/24 06:37:54;;;;;;;5.80;2.20;;;;;;;18.40;32.68;101603.94;5009116;28;20026;-44
2022/03/24 06:40:20;;;;;;;2.88;2.20;;;;;;;18.39;32.67;101604.09;5008939;28;20044;-46
2022/03/24 06:42:46;;;;;;;3.67;2.63;;;;;;;18.39;32.52;101606.72;5009084;28;20048;-47
2022/03/24 06:45:13;;;;;;;3.63;2.30;;;;;;;18.38;32.75;101602.44;5008606;28;20053;-43
2022/03/24 06:47:40;;;;;;;5.15;3.03;;;;;;;18.38;32.78;101602.44;5008755;28;20061;-44
2022/03/24 06:50:10;;;;;;;3.20;2.83;;;;;;;18.36;32.87;101597.34;5008563;28;20430;-42
2022/03/24 06:52:36;;;;;;;3.05;2.33;;;;;;;18.36;32.85;101601.78;5008545;28;20026;-41
2022/03/24 06:55:04;;;;;;;6.00;2.58;;;;;;;18.35;32.80;101603.59;5008891;28;20106;-40
2022/03/24 06:57:30;;;;;;;4.28;2.25;;;;;;;18.34;32.84;101603.78;5023483;28;20030;-44
2022/03/24 06:59:55;;;;;;;3.55;2.53;;;;;;;18.34;32.91;101601.13;5007044;28;20037;-43
2022/03/24 07:02:21;;;;;;;3.47;2.65;;;;;;;18.33;32.81;101610.84;5008639;28;20080;-44
2022/03/24 07:04:47;;;;;;;3.28;2.40;;;;;;;18.33;32.76;101602.13;5008280;28;20033;-38
2022/03/24 07:07:13;;;;;;;4.32;2.70;;;;;;;18.31;32.85;101599.66;5008208;28;20034;-43
2022/03/24 07:09:39;;;;;;;3.28;2.42;;;;;;;18.31;32.78;101596.19;5008261;28;20022;-44
2022/03/24 07:12:05;;;;;;;3.70;2.72;;;;;;;18.30;32.87;101597.19;5013241;28;20025;-43
2022/03/24 07:14:30;;;;;;;4.00;2.85;;;;;;;18.30;32.87;101605.09;5048051;28;20037;-43
2022/03/24 07:16:56;;;;;;;4.35;2.58;;;;;;;18.30;33.04;101599.81;5047723;28;20039;-46
2022/03/24 07:19:21;;;;;;;4.15;2.70;;;;;;;18.28;32.80;101599.16;5047745;28;20082;-45
2022/03/24 07:21:47;;;;;;;3.05;2.70;;;;;;;18.28;32.84;101593.88;5047789;28;20116;-45
2022/03/24 07:24:12;;;;;;;3.20;2.50;;;;;;;18.29;32.86;101600.81;5047937;28;20032;-40
2022/03/24 07:26:39;;;;;;;4.25;2.50;;;;;;;18.30;32.86;101597.19;5047592;28;20479;-46
2022/03/24 07:29:04;;;;;;;3.28;2.60;;;;;;;18.31;32.88;101590.91;5047571;28;20084;-46
2022/03/24 07:31:30;;;;;;;3.58;2.25;;;;;;;18.31;32.83;101593.56;5046925;28;20178;-44
2022/03/24 07:33:57;;;;;;;2.65;2.42;;;;;;;18.32;32.81;101592.56;5047499;28;20064;-45
2022/03/24 07:36:24;;;;;;;2.78;2.38;;;;;;;18.32;32.77;101597.84;5047548;28;20029;-41
2022/03/24 07:38:50;;;;;;;2.75;2.20;;;;;;;18.32;32.77;101597.84;5047408;28;20025;-45
2022/03/24 07:41:17;;;;;;;3.28;2.15;;;;;;;18.33;32.71;101599.47;5047211;28;20278;-42
2022/03/24 07:43:42;;;;;;;3.65;2.63;;;;;;;18.33;32.60;101602.13;5047386;28;20068;-44
2022/03/24 07:46:08;;;;;;;4.20;2.40;;;;;;;18.32;32.72;101603.13;5047292;28;20079;-42
2022/03/24 07:48:33;;;;;;;4.75;3.10;;;;;;;18.33;32.74;101599.47;5047109;28;20033;-44
2022/03/24 07:51:03;;;;;;;3.03;2.03;;;;;;;18.32;32.77;101603.13;5046982;28;20066;-47
2022/03/24 07:53:28;;;;;;;3.03;2.40;;;;;;;18.33;32.70;101599.47;5047017;28;20423;-46
2022/03/24 07:55:55;;;;;;;2.88;2.00;;;;;;;18.33;32.77;101599.47;5047203;28;20068;-43
2022/03/24 07:58:21;;;;;;;2.70;2.47;;;;;;;18.33;32.74;101602.94;5046907;28;20039;-42
2022/03/24 08:00:48;;;;;;;3.88;2.22;;;;;;;18.34;32.69;101601.97;5047094;28;20044;-43
2022/03/24 08:03:18;;;;;;;3.47;2.42;;;;;;;18.34;32.79;101598.50;5045450;28;20025;-42
2022/03/24 08:05:46;;;;;;;4.07;3.03;;;;;;;18.36;32.76;101609.69;5046668;28;20504;-45
2022/03/24 08:08:12;;;;;;;3.95;2.25;;;;;;;18.36;32.77;101599.16;5047051;28;20037;-47
2022/03/24 08:10:39;;;;;;;3.17;2.45;;;;;;;18.36;32.60;101599.97;5046679;28;20122;-43
2022/03/24 08:13:06;;;;;;;3.75;2.20;;;;;;;18.37;32.74;101606.91;5046583;28;20076;-45
2022/03/24 08:15:32;;;;;;;3.28;2.22;;;;;;;18.38;32.76;101605.09;5046709;28;20574;-43
2022/03/24 08:17:57;;;;;;;3.60;2.45;;;;;;;18.39;32.71;101604.09;5046820;28;20075;-44
2022/03/24 08:20:23;;;;;;;3.53;2.30;;;;;;;18.38;32.63;101603.28;5046408;28;20041;-46
2022/03/24 08:22:49;;;;;;;4.85;3.03;;;;;;;18.38;32.69;101605.91;5046679;28;20025;-50
2022/03/24 08:25:15;;;;;;;3.20;2.15;;;;;;;18.38;32.60;101605.09;5046685;28;20119;-46
2022/03/24 08:27:40;;;;;;;3.22;2.20;;;;;;;18.37;32.74;101601.63;5047068;28;20351;-39
2022/03/24 08:30:06;;;;;;;3.30;2.60;;;;;;;18.37;32.76;101603.44;5046441;28;20379;-39
2022/03/24 08:32:32;;;;;;;3.42;2.90;;;;;;;18.35;32.77;101600.13;5046805;28;20025;-48
2022/03/24 08:34:58;;;;;;;3.38;2.45;;;;;;;18.35;32.92;101598.31;5046438;28;20491;-46
2022/03/24 08:37:23;;;;;;;4.60;2.08;;;;;;;18.36;32.86;101599.16;5046630;28;20022;-45
2022/03/24 08:39:49;;;;;;;2.65;2.10;;;;;;;18.35;32.92;101597.50;5046852;28;20032;-45
2022/03/24 08:42:14;;;;;;;3.30;2.00;;;;;;;18.36;32.99;101601.78;5046566;28;20491;-46
2022/03/24 08:44:40;;;;;;;3.22;2.47;;;;;;;18.35;33.01;101597.50;5048542;28;20083;-41
2022/03/24 08:47:06;;;;;;;4.32;2.10;;;;;;;18.36;33.11;101607.06;5050863;28;20165;-47
2022/03/24 08:49:32;;;;;;;2.15;1.70;;;;;;;18.37;33.33;101606.06;5050304;28;20032;-44
2022/03/24 08:51:58;;;;;;;2.97;2.22;;;;;;;18.36;33.23;101601.78;5050762;28;20032;-44
2022/03/24 08:54:23;;;;;;;3.28;1.80;;;;;;;18.36;33.19;101601.78;5050403;28;20146;-46
2022/03/24 08:56:49;;;;;;;2.58;2.22;;;;;;;18.36;33.33;101599.16;5050220;28;20029;-45
2022/03/24 08:59:14;;;;;;;4.30;2.40;;;;;;;18.36;33.49;101599.16;5050453;28;20031;-43
2022/03/24 09:01:43;;;;;;;3.03;2.20;;;;;;;18.36;33.75;101605.25;5050087;28;20119;-49
2022/03/24 09:04:08;;;;;;;2.83;1.92;;;;;;;18.36;33.60;101604.44;5048642;28;20040;-44
2022/03/24 09:06:34;;;;;;;4.60;2.30;;;;;;;18.35;33.63;101597.50;5050146;28;20025;-41
2022/03/24 09:08:59;;;;;;;2.38;1.98;;;;;;;18.34;33.59;101606.41;5050023;28;20036;-44
2022/03/24 09:11:25;;;;;;;3.10;2.30;;;;;;;18.34;33.76;101595.84;5049883;28;20086;-42
2022/03/24 09:13:52;;;;;;;2.60;2.03;;;;;;;18.34;33.81;101595.84;5049672;28;20056;-45
2022/03/24 09:16:17;;;;;;;2.75;2.10;;;;;;;18.33;33.77;101605.59;5050156;28;20044;-46
2022/03/24 09:18:43;;;;;;;2.88;2.13;;;;;;;18.32;33.88;101595.19;5050040;28;20025;-44
2022/03/24 09:21:09;;;;;;;2.30;1.83;;;;;;;18.32;33.88;101596.03;5049982;28;20124;-42
2022/03/24 09:23:35;;;;;;;2.13;1.80;;;;;;;18.33;34.05;101599.47;5049914;28;20029;-44
2022/03/24 09:26:01;;;;;;;3.42;2.15;;;;;;;18.33;33.97;101604.75;5049927;28;20035;-44
2022/03/24 09:28:27;;;;;;;3.38;2.28;;;;;;;18.32;34.20;101600.47;5049993;28;20035;-42
2022/03/24 09:30:56;;;;;;;2.70;2.00;;;;;;;18.31;34.22;101597.00;5049760;28;20028;-41
2022/03/24 09:33:22;;;;;;;3.15;2.25;;;;;;;18.32;34.31;101597.84;5031511;28;20068;-44
2022/03/24 09:35:49;;;;;;;3.63;2.10;;;;;;;18.31;34.33;101593.56;5049867;28;20076;-45
2022/03/24 09:38:14;;;;;;;3.50;2.17;;;;;;;18.31;34.46;101593.56;5049938;28;20124;-42
2022/03/24 09:40:41;;;;;;;3.47;1.80;;;;;;;18.30;34.37;101598.00;5049889;28;20033;-43
2022/03/24 09:43:07;;;;;;;2.42;2.00;;;;;;;18.29;34.58;101596.34;5049547;28;20032;-43
2022/03/24 09:45:33;;;;;;;2.67;1.70;;;;;;;18.30;34.56;101597.19;5049618;28;20033;-44
2022/03/24 09:47:58;;;;;;;2.38;1.90;;;;;;;18.30;34.66;101594.53;5049635;28;20098;-43
2022/03/24 09:50:27;;;;;;;2.25;1.58;;;;;;;18.31;34.77;101596.19;5049310;28;20037;-40
2022/03/24 09:52:53;;;;;;;4.03;1.88;;;;;;;18.31;34.72;101590.91;5049614;28;20036;-44
2022/03/24 09:55:20;;;;;;;1.95;1.75;;;;;;;18.31;34.60;101590.91;5048928;28;20024;-44
2022/03/24 09:57:47;;;;;;;2.30;1.88;;;;;;;18.33;34.75;101583.66;5049303;28;20047;-44
2022/03/24 10:00:15;;;;;;;2.35;1.65;;;;;;;18.33;34.78;101583.66;5049400;28;20032;-41
2022/03/24 10:02:40;;;;;;;2.45;2.05;;;;;;;18.33;34.85;101583.66;5049600;28;20047;-41
2022/03/24 10:05:08;;;;;;;1.95;1.70;;;;;;;18.32;34.89;101576.72;5049341;28;20463;-42
2022/03/24 10:07:46;;;;;;;2.15;1.63;;;;;;;18.30;34.99;101578.72;5031272;28;20124;-44
2022/03/24 10:10:27;;;;;;;2.17;1.77;;;;;;;18.30;35.28;101573.44;5047553;28;20122;-42
2022/03/24 10:12:53;;;;;;;2.38;1.67;;;;;;;18.31;35.11;101573.28;5018355;28;20449;-44
2022/03/24 10:15:19;;;;;;;1.95;1.75;;;;;;;18.31;35.07;101572.44;5009856;28;20295;-42
2022/03/24 10:17:56;;;;;;;1.92;1.55;;;;;;;18.30;35.10;101570.81;5009503;28;20079;-44
2022/03/24 10:20:28;;;;;;;1.95;1.42;;;;;;;18.30;35.18;101573.44;5009293;28;20436;-43
2022/03/24 10:22:54;;;;;;;3.75;1.98;;;;;;;18.31;35.26;101564.53;5009489;28;20034;-42
2022/03/24 10:25:26;;;;;;;1.83;1.50;;;;;;;18.32;35.30;101566.19;5009063;28;20030;-42
2022/03/24 10:28:19;;;;;;;2.25;1.70;;;;;;;18.29;35.38;101561.25;5009496;28;20044;-44
2022/03/24 10:30:46;;;;;;;2.58;1.85;;;;;;;18.32;35.36;101560.91;5009264;28;20060;-46
2022/03/24 10:33:45;;;;;;;3.13;1.45;;;;;;;18.31;35.29;101552.16;5009065;28;20432;-41
2022/03/24 10:36:13;;;;;;;1.92;1.42;;;;;;;18.33;35.42;101554.63;5008966;28;20130;-43
2022/03/24 10:38:44;;;;;;;2.42;1.65;;;;;;;18.33;35.42;101547.53;5009243;28;20037;-42
2022/03/24 10:41:16;;;;;;;2.58;2.17;;;;;;;18.33;35.49;101547.53;5023862;28;20041;-43
2022/03/24 10:43:42;;;;;;;2.35;1.75;;;;;;;18.36;35.25;101547.22;5009308;28;20506;-45
2022/03/24 10:46:19;;;;;;;2.25;1.75;;;;;;;18.34;35.47;101540.44;5009066;28;20037;-45
2022/03/24 10:48:47;;;;;;;2.45;2.10;;;;;;;18.37;35.51;101540.13;5009065;28;20092;-44
2022/03/24 10:51:24;;;;;;;1.65;1.20;;;;;;;18.36;35.58;101536.66;5009049;28;20088;-48
2022/03/24 10:53:51;;;;;;;2.13;1.63;;;;;;;18.38;35.52;101539.13;5009023;28;20053;-43
2022/03/24 10:56:21;;;;;;;2.28;1.48;;;;;;;18.38;35.56;101533.84;5009112;28;20037;-45
2022/03/24 10:58:55;;;;;;;2.70;2.08;;;;;;;18.37;35.76;101532.19;5008667;28;20034;-46
2022/03/24 11:01:23;;;;;;;2.10;1.20;;;;;;;18.38;35.65;101529.41;5009238;28;20532;-41
2022/03/24 11:03:49;;;;;;;2.13;1.63;;;;;;;18.39;35.76;101528.41;5008616;28;20032;-44
2022/03/24 11:06:19;;;;;;;2.45;1.48;;;;;;;18.38;35.66;101520.66;5008324;28;20055;-43
2022/03/24 11:08:52;;;;;;;2.58;1.40;;;;;;;18.38;35.64;101518.03;5008208;28;20088;-45
2022/03/24 11:11:18;;;;;;;2.03;1.50;;;;;;;18.39;35.85;101519.66;5008684;28;20041;-46
2022/03/24 11:13:56;;;;;;;2.42;1.52;;;;;;;18.36;35.96;101512.91;5040279;28;20567;-45
2022/03/24 11:16:24;;;;;;;1.80;1.42;;;;;;;18.37;35.66;101511.09;5048061;28;20086;-45
2022/03/24 11:18:52;;;;;;;2.03;1.40;;;;;;;18.38;35.87;101512.75;5046905;28;20059;-45
2022/03/24 11:21:21;;;;;;;1.60;1.30;;;;;;;18.38;36.10;101508.28;5048191;28;20491;-46
2022/03/24 11:23:47;;;;;;;1.55;1.10;;;;;;;18.37;36.16;101506.63;5047613;28;20368;-38
2022/03/24 11:26:14;;;;;;;1.38;0.88;;;;;;;18.37;36.11;101504.00;5047708;28;20082;-41
2022/03/24 11:28:40;;;;;;;1.95;1.30;;;;;;;18.37;36.13;101500.53;5047968;28;20112;-42
2022/03/24 11:31:14;;;;;;;2.55;1.15;;;;;;;18.36;36.12;101494.44;5047462;28;20554;-45
2022/03/24 11:33:43;;;;;;;1.67;1.15;;;;;;;18.36;36.10;101499.72;5047513;28;20037;-40
2022/03/24 11:36:10;;;;;;;1.55;1.20;;;;;;;18.36;36.05;101496.25;5047543;28;20079;-42
2022/03/24 11:38:37;;;;;;;1.80;1.08;;;;;;;18.36;36.20;101491.81;5047691;28;20031;-42
2022/03/24 11:41:06;;;;;;;1.77;1.10;;;;;;;18.36;36.27;101497.09;5047467;28;20171;-45
2022/03/24 11:43:40;;;;;;;1.67;1.27;;;;;;;18.35;36.21;101492.78;5047227;28;20036;-44
2022/03/24 11:46:19;;;;;;;2.10;1.20;;;;;;;18.33;36.39;101491.31;5045728;28;20261;-45
2022/03/24 11:48:45;;;;;;;1.77;1.00;;;;;;;18.34;36.37;101480.59;5047127;28;20558;-40
2022/03/24 11:51:20;;;;;;;1.60;1.23;;;;;;;18.33;36.43;101480.78;5047135;28;20120;-44
2022/03/24 11:54:00;;;;;;;1.92;1.60;;;;;;;18.31;36.50;101480.94;5029080;28;20036;-44
2022/03/24 11:56:25;;;;;;;1.83;1.40;;;;;;;18.34;36.54;101477.13;5047185;28;20460;-41
2022/03/24 11:58:54;;;;;;;1.73;1.27;;;;;;;18.32;36.45;101471.22;5047066;28;20082;-45
2022/03/24 12:01:19;;;;;;;2.20;0.93;;;;;;;18.33;36.53;101468.41;5047371;28;20392;-43
2022/03/24 12:03:54;;;;;;;1.52;1.00;;;;;;;18.32;36.51;101465.94;5046976;28;20071;-42
2022/03/24 12:06:43;;;;;;;2.40;1.23;;;;;;;18.33;36.62;101472.84;5045591;28;20523;-43
2022/03/24 12:09:10;;;;;;;1.73;1.13;;;;;;;18.31;36.72;101459.00;5047191;28;21009;-43
2022/03/24 12:11:43;;;;;;;1.40;1.10;;;;;;;18.32;36.65;101458.84;5047140;28;20051;-42
2022/03/24 12:14:11;;;;;;;1.10;0.82;;;;;;;18.33;36.67;101460.47;5046898;28;20418;-44
2022/03/24 12:16:38;;;;;;;1.65;1.08;;;;;;;18.34;36.71;101459.50;5046987;28;20159;-45
2022/03/24 12:19:05;;;;;;;1.30;0.98;;;;;;;18.35;36.77;101455.03;5028689;28;20433;-42
2022/03/24 12:21:32;;;;;;;1.70;0.95;;;;;;;18.36;36.80;101443.50;5028796;28;20067;-44
2022/03/24 12:24:19;;;;;;;2.08;1.38;;;;;;;18.35;36.75;101455.03;5047055;28;20057;-42
2022/03/24 12:26:53;;;;;;;1.55;1.00;;;;;;;18.33;36.70;101452.56;5046955;28;20070;-44
2022/03/24 12:29:21;;;;;;;1.50;0.98;;;;;;;18.36;36.71;101454.03;5046963;28;20029;-44
2022/03/24 12:32:00;;;;;;;2.10;1.17;;;;;;;18.33;36.78;101438.56;5046856;28;20032;-46
2022/03/24 12:34:45;;;;;;;1.65;1.10;;;;;;;18.32;36.78;101435.09;5046571;28;20408;-40
2022/03/24 12:37:22;;;;;;;1.58;1.17;;;;;;;18.32;36.94;101439.56;5047021;28;20125;-43
2022/03/24 12:40:09;;;;;;;1.52;0.98;;;;;;;18.34;36.91;101427.84;5046695;28;20043;-46
2022/03/24 12:42:49;;;;;;;1.73;1.00;;;;;;;18.32;36.92;101434.28;5046398;28;20037;-43
2022/03/24 12:45:25;;;;;;;2.13;1.00;;;;;;;18.32;36.91;101426.38;5046933;28;20119;-45
2022/03/24 12:47:55;;;;;;;1.33;1.02;;;;;;;18.33;36.85;101439.38;5044974;28;20484;-46
2022/03/24 12:50:20;;;;;;;1.40;0.80;;;;;;;18.32;36.98;101421.09;5046182;28;20586;-42
2022/03/24 12:53:02;;;;;;;1.30;0.98;;;;;;;18.31;36.86;101419.44;5046344;28;20049;-42
2022/03/24 12:55:34;;;;;;;1.80;1.20;;;;;;;18.32;37.08;101416.63;5045089;28;20491;-46
2022/03/24 12:58:09;;;;;;;1.10;0.80;;;;;;;18.34;37.09;101416.47;5046579;28;20640;-46
2022/03/24 13:00:41;;;;;;;1.10;0.80;;;;;;;18.34;37.04;101416.47;5046379;28;20487;-42
2022/03/24 13:03:07;;;;;;;2.58;1.10;;;;;;;18.35;37.02;101415.47;5044766;28;20040;-42
2022/03/24 13:05:35;;;;;;;1.73;1.42;;;;;;;18.35;37.02;101418.94;5046386;28;20718;-45
2022/03/24 13:08:03;;;;;;;2.08;1.17;;;;;;;18.37;37.01;101416.94;5028182;28;20036;-45
2022/03/24 13:10:33;;;;;;;1.75;0.82;;;;;;;18.37;36.88;101424.84;5046400;28;20036;-40
2022/03/24 13:13:02;;;;;;;2.00;1.10;;;;;;;18.38;37.06;101412.50;5046160;28;20435;-43
2022/03/24 13:15:31;;;;;;;1.42;0.80;;;;;;;18.39;36.89;101414.94;5046232;28;20444;-42
2022/03/24 13:17:58;;;;;;;1.30;0.82;;;;;;;18.40;37.14;101413.97;5046682;28;20032;-42
2022/03/24 13:20:26;;;;;;;1.60;0.90;;;;;;;18.41;37.09;101420.88;5046230;28;20220;-43
2022/03/24 13:22:53;;;;;;;1.60;1.08;;;;;;;18.42;37.09;101413.78;5046084;28;20387;-44
2022/03/24 13:25:23;;;;;;;1.25;0.90;;;;;;;18.44;37.06;101409.13;5045996;28;20078;-45
2022/03/24 13:27:54;;;;;;;1.52;1.00;;;;;;;18.43;37.17;101404.88;5028038;28;20044;-44
2022/03/24 13:30:22;;;;;;;1.92;0.77;;;;;;;18.43;36.94;101405.66;5029111;28;20578;-43